createdAt,value
2018-12-31T00:00:02.554Z,4.84
2018-12-31T00:01:02.541Z,4.83
2018-12-31T00:02:02.524Z,4.72
2018-12-31T00:03:02.522Z,4.75
2018-12-31T00:04:02.539Z,4.83
2018-12-31T00:05:02.494Z,4.77
2018-12-31T00:06:02.481Z,4.77
2018-12-31T00:07:02.466Z,4.68
2018-12-31T00:08:02.455Z,4.75
2018-12-31T00:09:02.448Z,4.80
2018-12-31T00:10:02.445Z,4.68
2018-12-31T00:11:02.426Z,4.74
2018-12-31T00:12:02.420Z,4.71
2018-12-31T00:13:02.400Z,4.67
2018-12-31T00:14:02.401Z,4.64
2018-12-31T00:15:02.387Z,4.59
2018-12-31T00:16:02.407Z,4.62
2018-12-31T00:17:02.367Z,4.68
2018-12-31T00:18:02.486Z,4.72
2018-12-31T00:19:02.342Z,4.67
2018-12-31T00:20:02.331Z,4.64
2018-12-31T00:21:02.314Z,4.64
2018-12-31T00:22:02.318Z,4.57
2018-12-31T00:23:02.299Z,4.67
2018-12-31T00:24:02.287Z,4.72
2018-12-31T00:25:02.276Z,4.65
2018-12-31T00:26:02.301Z,4.61
2018-12-31T00:27:02.259Z,4.67
2018-12-31T00:28:02.243Z,4.71
2018-12-31T00:29:02.229Z,4.67
2018-12-31T00:30:02.217Z,4.69
2018-12-31T00:31:02.211Z,4.62
2018-12-31T00:32:02.217Z,4.71
2018-12-31T00:33:02.186Z,4.69
2018-12-31T00:34:02.185Z,4.72
2018-12-31T00:35:02.170Z,4.65
2018-12-31T00:36:02.153Z,4.68
2018-12-31T00:37:02.146Z,4.68
2018-12-31T00:38:02.156Z,4.72
2018-12-31T00:39:02.126Z,4.69
2018-12-31T00:40:02.566Z,4.71
2018-12-31T00:41:02.100Z,4.64
2018-12-31T00:42:02.087Z,4.68
2018-12-31T00:43:02.080Z,4.65
2018-12-31T00:44:02.088Z,4.69
2018-12-31T00:45:02.105Z,4.75
2018-12-31T00:46:02.046Z,4.65
2018-12-31T00:47:02.045Z,4.54
2018-12-31T00:48:02.023Z,4.67
2018-12-31T00:49:02.016Z,4.65
2018-12-31T00:50:02.003Z,4.56
2018-12-31T00:51:02.005Z,4.56
2018-12-31T00:52:01.982Z,4.69
2018-12-31T00:53:01.970Z,4.67
2018-12-31T00:54:01.962Z,4.56
2018-12-31T00:55:01.958Z,4.56
2018-12-31T00:56:01.944Z,4.56
2018-12-31T00:57:01.932Z,4.64
2018-12-31T00:58:01.916Z,4.69
2018-12-31T00:59:01.920Z,4.64
2018-12-31T01:00:01.903Z,4.57
2018-12-31T01:01:01.894Z,4.62
2018-12-31T01:02:01.902Z,4.68
2018-12-31T01:03:01.867Z,4.53
2018-12-31T01:04:01.860Z,4.64
2018-12-31T01:05:01.845Z,4.59
2018-12-31T01:06:01.830Z,4.74
2018-12-31T01:07:01.824Z,4.67
2018-12-31T01:08:01.815Z,4.68
2018-12-31T01:09:01.801Z,4.65
2018-12-31T01:10:01.793Z,4.71
2018-12-31T01:11:01.775Z,4.62
2018-12-31T01:12:01.772Z,4.68
2018-12-31T01:13:01.762Z,4.71
2018-12-31T01:14:01.754Z,4.71
2018-12-31T01:15:01.738Z,4.75
2018-12-31T01:16:01.734Z,4.64
2018-12-31T01:17:01.716Z,4.83
2018-12-31T01:18:01.743Z,4.71
2018-12-31T01:19:01.690Z,4.68
2018-12-31T01:20:01.693Z,4.67
2018-12-31T01:21:01.674Z,4.62
2018-12-31T01:22:01.670Z,4.77
2018-12-31T01:23:01.655Z,4.64
2018-12-31T01:24:01.669Z,4.72
2018-12-31T01:25:01.634Z,4.71
2018-12-31T01:26:01.620Z,4.77
2018-12-31T01:27:01.604Z,4.68
2018-12-31T01:28:01.594Z,4.69
2018-12-31T01:29:01.597Z,4.74
2018-12-31T01:30:01.598Z,4.72
2018-12-31T01:31:01.569Z,4.72
2018-12-31T01:32:01.551Z,4.68
2018-12-31T01:33:01.539Z,4.67
2018-12-31T01:34:01.531Z,4.79
2018-12-31T01:35:01.537Z,4.71
2018-12-31T01:36:01.517Z,4.65
2018-12-31T01:37:01.503Z,4.72
2018-12-31T01:38:01.485Z,4.74
2018-12-31T01:39:01.482Z,4.72
2018-12-31T01:40:01.507Z,4.79
2018-12-31T01:41:01.463Z,4.77
2018-12-31T01:42:01.450Z,4.79
2018-12-31T01:43:01.440Z,4.75
2018-12-31T01:44:01.423Z,4.72
2018-12-31T01:45:01.416Z,4.72
2018-12-31T01:46:01.415Z,4.71
2018-12-31T01:47:01.397Z,4.75
2018-12-31T01:48:09.020Z,4.77
2018-12-31T01:49:01.371Z,4.75
2018-12-31T01:50:01.364Z,4.72
2018-12-31T01:51:01.386Z,4.80
2018-12-31T01:52:01.338Z,4.75
2018-12-31T01:53:01.357Z,4.72
2018-12-31T01:54:01.320Z,4.67
2018-12-31T01:55:01.305Z,4.74
2018-12-31T01:56:01.293Z,4.69
2018-12-31T01:57:01.296Z,4.68
2018-12-31T01:58:01.276Z,4.83
2018-12-31T01:59:01.292Z,4.77
2018-12-31T02:00:01.281Z,4.74
2018-12-31T02:01:01.240Z,4.77
2018-12-31T02:02:01.231Z,4.67
2018-12-31T02:03:01.223Z,4.75
2018-12-31T02:04:01.208Z,4.77
2018-12-31T02:05:01.205Z,4.79
2018-12-31T02:06:01.191Z,4.74
2018-12-31T02:07:01.178Z,4.71
2018-12-31T02:08:01.178Z,4.75
2018-12-31T02:09:01.170Z,4.69
2018-12-31T02:10:01.150Z,4.75
2018-12-31T02:11:01.139Z,4.74
2018-12-31T02:12:01.125Z,4.74
2018-12-31T02:13:01.117Z,4.74
2018-12-31T02:14:01.114Z,4.75
2018-12-31T02:15:01.095Z,4.87
2018-12-31T02:16:01.083Z,4.72
2018-12-31T02:17:01.071Z,4.84
2018-12-31T02:18:01.064Z,4.86
2018-12-31T02:19:01.048Z,4.77
2018-12-31T02:20:01.081Z,4.80
2018-12-31T02:21:01.024Z,4.77
2018-12-31T02:22:01.014Z,4.72
2018-12-31T02:23:01.007Z,4.71
2018-12-31T02:24:01.003Z,4.84
2018-12-31T02:25:00.984Z,4.75
2018-12-31T02:26:00.985Z,4.79
2018-12-31T02:27:00.972Z,4.87
2018-12-31T02:28:00.955Z,4.84
2018-12-31T02:29:00.937Z,4.79
2018-12-31T02:30:00.944Z,4.77
2018-12-31T02:31:00.932Z,4.83
2018-12-31T02:32:00.914Z,4.84
2018-12-31T02:33:00.895Z,4.80
2018-12-31T02:34:00.892Z,4.75
2018-12-31T02:35:00.873Z,4.77
2018-12-31T02:36:00.880Z,4.74
2018-12-31T02:37:00.852Z,4.75
2018-12-31T02:38:00.847Z,4.79
2018-12-31T02:39:00.837Z,4.83
2018-12-31T02:40:00.823Z,4.80
2018-12-31T02:41:00.828Z,4.83
2018-12-31T02:42:00.798Z,4.75
2018-12-31T02:43:00.793Z,4.80
2018-12-31T02:44:00.780Z,4.75
2018-12-31T02:45:00.766Z,4.75
2018-12-31T02:46:00.762Z,4.80
2018-12-31T02:47:00.790Z,4.83
2018-12-31T02:48:00.735Z,4.80
2018-12-31T02:49:00.730Z,4.75
2018-12-31T02:50:00.714Z,4.88
2018-12-31T02:51:00.703Z,4.77
2018-12-31T02:52:00.693Z,4.80
2018-12-31T02:53:00.688Z,4.79
2018-12-31T02:54:00.670Z,4.87
2018-12-31T02:55:00.666Z,4.75
2018-12-31T02:56:00.658Z,4.79
2018-12-31T02:57:00.646Z,4.83
2018-12-31T02:58:00.655Z,4.77
2018-12-31T02:59:00.620Z,4.83
2018-12-31T03:00:00.637Z,4.86
2018-12-31T03:01:00.600Z,4.79
2018-12-31T03:02:00.588Z,4.79
2018-12-31T03:03:00.580Z,4.83
2018-12-31T03:04:00.598Z,4.77
2018-12-31T03:05:00.555Z,4.75
2018-12-31T03:06:00.547Z,4.80
2018-12-31T03:07:00.537Z,4.71
2018-12-31T03:08:00.525Z,4.80
2018-12-31T03:09:00.507Z,4.87
2018-12-31T03:10:00.523Z,4.71
2018-12-31T03:11:00.496Z,4.77
2018-12-31T03:12:00.481Z,4.72
2018-12-31T03:13:00.466Z,4.77
2018-12-31T03:14:00.460Z,4.74
2018-12-31T03:15:00.443Z,4.83
2018-12-31T03:16:00.442Z,4.71
2018-12-31T03:17:00.424Z,4.77
2018-12-31T03:18:00.419Z,4.75
2018-12-31T03:19:08.071Z,4.65
2018-12-31T03:20:07.480Z,4.71
2018-12-31T03:21:08.154Z,4.71
2018-12-31T03:22:09.190Z,4.84
2018-12-31T03:23:08.223Z,4.69
2018-12-31T03:24:08.265Z,4.75
2018-12-31T03:25:08.306Z,4.86
2018-12-31T03:26:00.354Z,4.74
2018-12-31T03:27:00.316Z,4.74
2018-12-31T03:28:00.313Z,4.77
2018-12-31T03:29:00.299Z,4.83
2018-12-31T03:30:00.320Z,4.83
2018-12-31T03:31:07.353Z,4.91
2018-12-31T03:32:00.266Z,4.88
2018-12-31T03:33:00.257Z,4.90
2018-12-31T03:34:00.240Z,4.91
2018-12-31T03:35:00.229Z,4.88
2018-12-31T03:36:00.230Z,4.90
2018-12-31T03:37:00.219Z,4.94
2018-12-31T03:38:00.213Z,4.91
2018-12-31T03:39:00.191Z,4.93
2018-12-31T03:40:00.274Z,4.96
2018-12-31T03:41:00.164Z,5.01
2018-12-31T03:42:00.192Z,4.94
2018-12-31T03:43:00.144Z,4.91
2018-12-31T03:44:00.141Z,4.97
2018-12-31T03:45:00.239Z,4.97
2018-12-31T03:46:00.112Z,4.99
2018-12-31T03:47:00.100Z,4.97
2018-12-31T03:48:00.104Z,4.91
2018-12-31T03:49:00.086Z,4.90
2018-12-31T03:50:00.194Z,4.90
2018-12-31T03:51:00.063Z,4.86
2018-12-31T03:52:00.124Z,4.99
2018-12-31T03:53:00.050Z,4.96
2018-12-31T03:54:00.029Z,4.91
2018-12-31T03:55:00.020Z,4.87
2018-12-31T03:56:00.021Z,4.75
2018-12-31T03:56:59.993Z,4.79
2018-12-31T03:57:59.996Z,4.72
2018-12-31T03:58:59.974Z,4.74
2018-12-31T03:59:59.974Z,4.79
2018-12-31T04:00:59.965Z,4.77
2018-12-31T04:01:59.939Z,4.75
2018-12-31T04:02:59.940Z,4.84
2018-12-31T04:03:59.918Z,4.80
2018-12-31T04:04:59.908Z,4.88
2018-12-31T04:05:59.900Z,4.77
2018-12-31T04:06:59.887Z,4.74
2018-12-31T04:07:59.911Z,4.79
2018-12-31T04:08:59.880Z,4.77
2018-12-31T04:09:59.854Z,4.74
2018-12-31T04:10:59.846Z,4.80
2018-12-31T04:11:59.831Z,4.71
2018-12-31T04:12:59.821Z,4.84
2018-12-31T04:13:59.829Z,4.79
2018-12-31T04:14:59.800Z,4.79
2018-12-31T04:15:59.788Z,4.87
2018-12-31T04:16:59.783Z,4.88
2018-12-31T04:17:59.779Z,4.75
2018-12-31T04:18:59.774Z,4.69
2018-12-31T04:19:59.745Z,4.75
2018-12-31T04:20:59.745Z,4.80
2018-12-31T04:21:59.730Z,4.72
2018-12-31T04:22:59.717Z,4.79
2018-12-31T04:23:59.703Z,4.79
2018-12-31T04:24:59.702Z,4.80
2018-12-31T04:25:59.687Z,4.79
2018-12-31T04:26:59.686Z,4.77
2018-12-31T04:27:59.664Z,4.72
2018-12-31T04:28:59.654Z,4.74
2018-12-31T04:29:59.667Z,4.74
2018-12-31T04:30:59.631Z,4.77
2018-12-31T04:31:59.618Z,4.80
2018-12-31T04:32:59.605Z,4.72
2018-12-31T04:33:59.599Z,4.79
2018-12-31T04:34:59.596Z,4.83
2018-12-31T04:35:59.581Z,4.86
2018-12-31T04:36:59.578Z,4.88
2018-12-31T04:37:59.562Z,4.86
2018-12-31T04:38:59.546Z,4.87
2018-12-31T04:39:59.533Z,4.88
2018-12-31T04:40:59.540Z,4.88
2018-12-31T04:41:59.513Z,4.94
2018-12-31T04:42:59.503Z,4.94
2018-12-31T04:43:59.493Z,4.86
2018-12-31T04:44:59.480Z,4.94
2018-12-31T04:45:59.491Z,4.90
2018-12-31T04:46:59.455Z,4.91
2018-12-31T04:47:59.453Z,4.94
2018-12-31T04:48:59.443Z,4.88
2018-12-31T04:49:59.426Z,4.84
2018-12-31T04:50:59.410Z,4.88
2018-12-31T04:51:59.418Z,4.97
2018-12-31T04:52:59.393Z,4.87
2018-12-31T04:53:59.389Z,4.88
2018-12-31T04:54:59.367Z,4.90
2018-12-31T04:55:59.360Z,4.84
2018-12-31T04:56:59.360Z,4.88
2018-12-31T04:57:59.337Z,4.90
2018-12-31T04:58:59.332Z,4.87
2018-12-31T04:59:59.327Z,4.80
2018-12-31T05:00:59.312Z,4.83
2018-12-31T05:01:59.297Z,4.90
2018-12-31T05:02:59.281Z,4.87
2018-12-31T05:03:59.285Z,4.84
2018-12-31T05:04:59.267Z,4.84
2018-12-31T05:05:59.259Z,4.93
2018-12-31T05:06:59.283Z,4.93
2018-12-31T05:07:59.227Z,4.87
2018-12-31T05:08:59.222Z,4.83
2018-12-31T05:09:59.212Z,4.86
2018-12-31T05:10:59.195Z,4.90
2018-12-31T05:11:59.196Z,4.88
2018-12-31T05:12:59.188Z,4.84
2018-12-31T05:13:59.162Z,4.90
2018-12-31T05:14:59.155Z,4.91
2018-12-31T05:15:59.153Z,4.86
2018-12-31T05:16:59.137Z,4.86
2018-12-31T05:17:59.129Z,4.90
2018-12-31T05:18:59.122Z,4.91
2018-12-31T05:19:59.096Z,4.88
2018-12-31T05:20:59.091Z,4.91
2018-12-31T05:21:59.084Z,4.88
2018-12-31T05:22:59.101Z,4.91
2018-12-31T05:23:59.066Z,4.88
2018-12-31T05:24:59.048Z,4.99
2018-12-31T05:25:59.042Z,4.94
2018-12-31T05:26:59.023Z,4.94
2018-12-31T05:27:59.023Z,4.94
2018-12-31T05:28:59.008Z,5.01
2018-12-31T05:29:58.995Z,5.06
2018-12-31T05:30:58.983Z,4.93
2018-12-31T05:31:58.971Z,5.04
2018-12-31T05:32:59.006Z,5.04
2018-12-31T05:33:58.950Z,5.02
2018-12-31T05:34:58.946Z,4.99
2018-12-31T05:35:58.924Z,4.96
2018-12-31T05:36:58.912Z,5.02
2018-12-31T05:37:58.907Z,5.04
2018-12-31T05:38:58.911Z,5.06
2018-12-31T05:39:58.885Z,5.06
2018-12-31T05:40:58.873Z,5.01
2018-12-31T05:41:58.867Z,5.04
2018-12-31T05:42:58.850Z,5.06
2018-12-31T05:43:58.859Z,5.06
2018-12-31T05:44:58.831Z,5.04
2018-12-31T05:45:58.818Z,5.06
2018-12-31T05:46:58.821Z,5.11
2018-12-31T05:47:58.796Z,5.04
2018-12-31T05:48:58.792Z,5.01
2018-12-31T05:49:58.785Z,5.14
2018-12-31T05:50:58.769Z,5.08
2018-12-31T05:51:58.755Z,5.08
2018-12-31T05:52:58.745Z,5.05
2018-12-31T05:53:58.729Z,5.05
2018-12-31T05:54:58.730Z,5.05
2018-12-31T05:55:58.712Z,5.01
2018-12-31T05:56:58.699Z,5.01
2018-12-31T05:57:58.691Z,5.02
2018-12-31T05:58:58.686Z,5.01
2018-12-31T05:59:58.705Z,5.08
2018-12-31T06:00:58.658Z,5.04
2018-12-31T06:01:58.649Z,5.06
2018-12-31T06:02:58.646Z,5.08
2018-12-31T06:03:58.628Z,5.06
2018-12-31T06:04:58.626Z,5.04
2018-12-31T06:05:58.632Z,5.09
2018-12-31T06:06:58.597Z,5.04
2018-12-31T06:07:58.586Z,4.97
2018-12-31T06:08:58.569Z,5.01
2018-12-31T06:09:58.556Z,5.04
2018-12-31T06:10:58.568Z,5.14
2018-12-31T06:11:58.584Z,5.06
2018-12-31T06:12:58.529Z,5.08
2018-12-31T06:13:58.515Z,5.09
2018-12-31T06:14:58.506Z,5.11
2018-12-31T06:15:58.493Z,5.06
2018-12-31T06:16:58.485Z,5.15
2018-12-31T06:17:58.511Z,5.17
2018-12-31T06:18:58.463Z,5.09
2018-12-31T06:19:58.451Z,5.11
2018-12-31T06:20:58.438Z,5.11
2018-12-31T06:21:58.439Z,5.12
2018-12-31T06:22:58.421Z,5.11
2018-12-31T06:23:58.458Z,5.09
2018-12-31T06:24:58.399Z,5.12
2018-12-31T06:25:58.389Z,5.09
2018-12-31T06:26:58.377Z,5.12
2018-12-31T06:27:58.371Z,5.08
2018-12-31T06:28:58.357Z,5.09
2018-12-31T06:29:58.379Z,5.11
2018-12-31T06:30:58.331Z,5.17
2018-12-31T06:31:58.332Z,5.15
2018-12-31T06:32:58.308Z,5.20
2018-12-31T06:33:58.307Z,5.11
2018-12-31T06:34:58.291Z,5.14
2018-12-31T06:35:58.283Z,5.26
2018-12-31T06:36:58.269Z,5.12
2018-12-31T06:37:58.310Z,5.17
2018-12-31T06:38:58.254Z,5.15
2018-12-31T06:39:58.245Z,5.23
2018-12-31T06:40:58.229Z,5.27
2018-12-31T06:41:58.212Z,5.29
2018-12-31T06:42:58.206Z,5.24
2018-12-31T06:43:58.207Z,5.23
2018-12-31T06:44:58.192Z,5.23
2018-12-31T06:45:58.184Z,5.29
2018-12-31T06:46:58.202Z,5.23
2018-12-31T06:47:58.155Z,5.26
2018-12-31T06:48:58.143Z,5.15
2018-12-31T06:49:58.134Z,5.30
2018-12-31T06:50:58.122Z,5.30
2018-12-31T06:51:58.109Z,5.22
2018-12-31T06:52:58.107Z,5.32
2018-12-31T06:53:58.084Z,5.30
2018-12-31T06:54:58.072Z,5.32
2018-12-31T06:55:58.064Z,5.37
2018-12-31T06:56:58.061Z,5.37
2018-12-31T06:57:58.077Z,5.33
2018-12-31T06:58:58.032Z,5.29
2018-12-31T06:59:58.035Z,5.33
2018-12-31T07:00:58.274Z,5.41
2018-12-31T07:01:58.014Z,5.40
2018-12-31T07:02:57.988Z,5.40
2018-12-31T07:03:57.976Z,5.41
2018-12-31T07:04:57.966Z,5.33
2018-12-31T07:05:57.960Z,5.33
2018-12-31T07:06:57.970Z,5.37
2018-12-31T07:07:57.942Z,5.32
2018-12-31T07:08:57.944Z,5.41
2018-12-31T07:09:57.921Z,5.41
2018-12-31T07:10:57.906Z,5.37
2018-12-31T07:12:04.990Z,5.44
2018-12-31T07:13:05.908Z,5.51
2018-12-31T07:14:05.417Z,5.45
2018-12-31T07:15:05.975Z,5.47
2018-12-31T07:15:57.857Z,5.48
2018-12-31T07:16:57.841Z,5.48
2018-12-31T07:17:57.833Z,5.55
2018-12-31T07:18:57.821Z,5.45
2018-12-31T07:19:57.830Z,5.38
2018-12-31T07:20:57.799Z,5.47
2018-12-31T07:21:57.785Z,5.47
2018-12-31T07:22:57.778Z,5.33
2018-12-31T07:23:57.771Z,5.42
2018-12-31T07:24:57.758Z,5.35
2018-12-31T07:25:57.781Z,5.44
2018-12-31T07:26:57.736Z,5.41
2018-12-31T07:27:57.719Z,5.41
2018-12-31T07:28:57.715Z,5.47
2018-12-31T07:29:57.703Z,5.38
2018-12-31T07:30:57.688Z,5.32
2018-12-31T07:31:57.690Z,5.42
2018-12-31T07:32:57.672Z,5.45
2018-12-31T07:33:57.660Z,5.40
2018-12-31T07:34:57.653Z,5.40
2018-12-31T07:35:57.635Z,5.45
2018-12-31T07:36:57.625Z,5.44
2018-12-31T07:37:57.623Z,5.40
2018-12-31T07:38:57.610Z,5.37
2018-12-31T07:39:57.600Z,5.48
2018-12-31T07:40:57.583Z,5.41
2018-12-31T07:41:57.578Z,5.51
2018-12-31T07:42:57.567Z,5.49
2018-12-31T07:43:57.555Z,5.49
2018-12-31T07:44:57.551Z,5.51
2018-12-31T07:45:57.534Z,5.55
2018-12-31T07:46:57.524Z,5.49
2018-12-31T07:47:57.524Z,5.42
2018-12-31T07:48:57.502Z,5.48
2018-12-31T07:49:57.485Z,5.51
2018-12-31T07:50:57.482Z,5.49
2018-12-31T07:51:57.465Z,5.49
2018-12-31T07:52:57.466Z,5.49
2018-12-31T07:53:57.449Z,5.55
2018-12-31T07:55:05.524Z,5.59
2018-12-31T07:56:05.029Z,5.58
2018-12-31T07:57:05.046Z,5.60
2018-12-31T07:57:57.404Z,5.63
2018-12-31T07:58:57.400Z,5.56
2018-12-31T08:00:04.435Z,5.65
2018-12-31T08:00:57.385Z,5.63
2018-12-31T08:02:05.099Z,5.52
2018-12-31T08:02:57.351Z,5.55
2018-12-31T08:03:57.361Z,5.66
2018-12-31T08:04:57.328Z,5.63
2018-12-31T08:05:58.139Z,5.62
2018-12-31T08:06:57.308Z,5.55
2018-12-31T08:07:57.308Z,5.65
2018-12-31T08:08:57.286Z,5.56
2018-12-31T08:09:57.375Z,5.65
2018-12-31T08:10:57.261Z,5.56
2018-12-31T08:11:57.262Z,5.59
2018-12-31T08:12:57.252Z,5.66
2018-12-31T08:13:57.233Z,5.62
2018-12-31T08:14:57.218Z,5.60
2018-12-31T08:15:57.208Z,5.58
2018-12-31T08:16:57.205Z,5.59
2018-12-31T08:17:57.191Z,5.56
2018-12-31T08:18:57.191Z,5.59
2018-12-31T08:19:57.172Z,5.73
2018-12-31T08:20:57.175Z,5.62
2018-12-31T08:21:57.144Z,5.74
2018-12-31T08:22:57.133Z,5.66
2018-12-31T08:23:57.152Z,5.66
2018-12-31T08:24:57.119Z,5.69
2018-12-31T08:25:57.111Z,5.75
2018-12-31T08:26:57.091Z,5.80
2018-12-31T08:27:57.084Z,5.77
2018-12-31T08:28:57.067Z,5.81
2018-12-31T08:29:57.069Z,5.75
2018-12-31T08:30:57.050Z,5.84
2018-12-31T08:31:57.038Z,5.95
2018-12-31T08:32:57.025Z,5.85
2018-12-31T08:33:57.019Z,5.85
2018-12-31T08:34:57.055Z,5.85
2018-12-31T08:35:57.001Z,5.90
2018-12-31T08:36:56.988Z,5.90
2018-12-31T08:37:56.971Z,5.95
2018-12-31T08:38:56.966Z,6.01
2018-12-31T08:39:56.955Z,5.93
2018-12-31T08:40:56.971Z,5.96
2018-12-31T08:41:56.927Z,5.99
2018-12-31T08:42:56.926Z,6.05
2018-12-31T08:44:05.641Z,6.02
2018-12-31T08:45:06.161Z,6.03
2018-12-31T08:46:03.959Z,6.05
2018-12-31T08:47:04.697Z,6.03
2018-12-31T08:48:05.732Z,6.11
2018-12-31T08:49:04.751Z,6.11
2018-12-31T08:50:04.774Z,6.13
2018-12-31T08:50:56.844Z,6.11
2018-12-31T08:51:56.824Z,6.05
2018-12-31T08:52:56.810Z,6.02
2018-12-31T08:53:56.803Z,6.05
2018-12-31T08:54:56.823Z,6.16
2018-12-31T08:55:56.777Z,6.11
2018-12-31T08:56:56.766Z,6.10
2018-12-31T08:57:56.761Z,6.16
2018-12-31T08:59:04.298Z,6.08
2018-12-31T08:59:56.741Z,6.08
2018-12-31T09:00:56.736Z,6.03
2018-12-31T09:01:56.712Z,6.20
2018-12-31T09:02:56.712Z,6.32
2018-12-31T09:03:56.690Z,6.32
2018-12-31T09:04:56.679Z,6.36
2018-12-31T09:05:56.670Z,6.42
2018-12-31T09:06:56.663Z,6.48
2018-12-31T09:07:56.704Z,6.55
2018-12-31T09:08:56.636Z,6.58
2018-12-31T09:09:56.625Z,6.65
2018-12-31T09:10:56.613Z,6.72
2018-12-31T09:11:56.609Z,6.79
2018-12-31T09:12:56.601Z,6.81
2018-12-31T09:13:56.623Z,6.72
2018-12-31T09:14:56.576Z,6.72
2018-12-31T09:15:56.558Z,6.83
2018-12-31T09:16:56.595Z,6.89
2018-12-31T09:17:56.546Z,6.96
2018-12-31T09:18:56.528Z,6.96
2018-12-31T09:19:56.528Z,7.09
2018-12-31T09:20:56.504Z,7.11
2018-12-31T09:21:56.500Z,7.05
2018-12-31T09:22:56.483Z,6.96
2018-12-31T09:23:56.493Z,6.99
2018-12-31T09:24:56.462Z,6.96
2018-12-31T09:25:56.553Z,6.99
2018-12-31T09:26:56.444Z,6.91
2018-12-31T09:27:56.433Z,6.90
2018-12-31T09:28:56.467Z,6.79
2018-12-31T09:29:56.417Z,6.71
2018-12-31T09:30:56.414Z,6.90
2018-12-31T09:31:56.460Z,6.79
2018-12-31T09:32:56.380Z,6.79
2018-12-31T09:33:56.365Z,6.76
2018-12-31T09:34:56.366Z,6.76
2018-12-31T09:35:56.341Z,6.82
2018-12-31T09:36:56.334Z,6.75
2018-12-31T09:37:56.324Z,6.89
2018-12-31T09:38:56.311Z,6.86
2018-12-31T09:39:56.308Z,6.83
2018-12-31T09:40:56.300Z,6.86
2018-12-31T09:41:56.283Z,6.89
2018-12-31T09:42:56.269Z,6.91
2018-12-31T09:43:56.256Z,6.91
2018-12-31T09:44:56.253Z,6.91
2018-12-31T09:45:56.250Z,6.75
2018-12-31T09:46:56.252Z,6.91
2018-12-31T09:47:56.217Z,6.94
2018-12-31T09:48:56.201Z,6.75
2018-12-31T09:49:56.195Z,6.82
2018-12-31T09:50:56.184Z,6.82
2018-12-31T09:51:56.215Z,6.75
2018-12-31T09:52:56.160Z,6.79
2018-12-31T09:53:56.152Z,6.76
2018-12-31T09:54:56.136Z,6.76
2018-12-31T09:55:56.132Z,6.79
2018-12-31T09:56:56.122Z,6.72
2018-12-31T09:57:56.127Z,6.87
2018-12-31T09:58:56.093Z,6.86
2018-12-31T09:59:56.090Z,6.90
2018-12-31T10:00:56.073Z,6.91
2018-12-31T10:01:56.070Z,7.00
2018-12-31T10:02:56.077Z,6.90
2018-12-31T10:03:56.045Z,6.91
2018-12-31T10:04:56.032Z,6.87
2018-12-31T10:05:56.027Z,7.00
2018-12-31T10:06:56.015Z,6.91
2018-12-31T10:07:56.017Z,6.93
2018-12-31T10:08:55.997Z,6.93
2018-12-31T10:09:55.984Z,6.96
2018-12-31T10:10:55.968Z,6.94
2018-12-31T10:11:55.955Z,7.05
2018-12-31T10:12:55.949Z,7.07
2018-12-31T10:13:55.929Z,7.01
2018-12-31T10:14:55.931Z,7.00
2018-12-31T10:15:55.913Z,6.93
2018-12-31T10:16:55.916Z,6.90
2018-12-31T10:17:55.898Z,6.89
2018-12-31T10:18:55.875Z,6.93
2018-12-31T10:19:55.866Z,6.97
2018-12-31T10:20:55.860Z,6.94
2018-12-31T10:21:55.843Z,6.93
2018-12-31T10:22:55.841Z,6.96
2018-12-31T10:23:55.897Z,7.09
2018-12-31T10:24:55.847Z,7.01
2018-12-31T10:26:05.439Z,7.11
2018-12-31T10:26:55.814Z,7.07
2018-12-31T10:27:55.784Z,7.04
2018-12-31T10:28:55.778Z,7.12
2018-12-31T10:29:55.770Z,7.05
2018-12-31T10:30:55.759Z,7.15
2018-12-31T10:31:55.751Z,7.09
2018-12-31T10:32:55.729Z,7.05
2018-12-31T10:33:55.719Z,7.08
2018-12-31T10:34:55.871Z,7.12
2018-12-31T10:35:55.693Z,7.08
2018-12-31T10:36:55.689Z,7.09
2018-12-31T10:37:55.670Z,7.09
2018-12-31T10:38:55.664Z,7.16
2018-12-31T10:39:55.649Z,7.09
2018-12-31T10:40:55.662Z,7.09
2018-12-31T10:41:55.634Z,7.30
2018-12-31T10:42:55.616Z,7.32
2018-12-31T10:43:55.615Z,7.41
2018-12-31T10:44:55.599Z,7.45
2018-12-31T10:45:55.582Z,7.52
2018-12-31T10:46:55.585Z,7.48
2018-12-31T10:47:55.567Z,7.60
2018-12-31T10:48:55.559Z,7.60
2018-12-31T10:49:55.545Z,7.73
2018-12-31T10:50:55.544Z,7.77
2018-12-31T10:51:55.525Z,7.76
2018-12-31T10:52:55.519Z,7.91
2018-12-31T10:53:55.504Z,7.89
2018-12-31T10:54:55.490Z,7.89
2018-12-31T10:55:55.472Z,7.88
2018-12-31T10:56:55.463Z,7.92
2018-12-31T10:57:55.508Z,7.95
2018-12-31T10:58:55.452Z,7.94
2018-12-31T10:59:55.949Z,7.85
2018-12-31T11:00:55.425Z,7.96
2018-12-31T11:01:55.525Z,7.95
2018-12-31T11:02:55.404Z,7.88
2018-12-31T11:03:57.039Z,7.95
2018-12-31T11:04:55.665Z,7.94
2018-12-31T11:05:56.750Z,8.06
2018-12-31T11:06:56.368Z,8.04
2018-12-31T11:07:55.436Z,8.03
2018-12-31T11:08:55.523Z,8.14
2018-12-31T11:09:55.328Z,8.21
2018-12-31T11:10:55.312Z,8.17
2018-12-31T11:11:55.302Z,8.22
2018-12-31T11:12:55.414Z,8.27
2018-12-31T11:13:55.284Z,8.28
2018-12-31T11:14:55.279Z,8.39
2018-12-31T11:15:55.262Z,8.22
2018-12-31T11:16:55.258Z,8.27
2018-12-31T11:17:56.637Z,8.28
2018-12-31T11:18:55.227Z,8.29
2018-12-31T11:19:55.252Z,8.37
2018-12-31T11:20:55.209Z,8.52
2018-12-31T11:21:55.197Z,8.61
2018-12-31T11:22:55.188Z,8.67
2018-12-31T11:23:55.170Z,8.70
2018-12-31T11:24:55.161Z,8.73
2018-12-31T11:25:55.166Z,8.79
2018-12-31T11:26:55.147Z,8.71
2018-12-31T11:27:55.130Z,8.76
2018-12-31T11:28:55.130Z,8.76
2018-12-31T11:29:55.106Z,8.79
2018-12-31T11:30:55.103Z,8.73
2018-12-31T11:31:55.087Z,8.64
2018-12-31T11:32:55.078Z,8.63
2018-12-31T11:33:55.071Z,8.61
2018-12-31T11:34:55.054Z,8.60
2018-12-31T11:35:55.043Z,8.61
2018-12-31T11:36:55.062Z,8.43
2018-12-31T11:37:55.018Z,8.43
2018-12-31T11:38:55.021Z,8.40
2018-12-31T11:39:55.005Z,8.45
2018-12-31T11:40:54.989Z,8.49
2018-12-31T11:41:54.977Z,8.37
2018-12-31T11:42:54.978Z,8.36
2018-12-31T11:43:54.954Z,8.29
2018-12-31T11:44:54.948Z,8.32
2018-12-31T11:45:54.928Z,8.25
2018-12-31T11:46:54.916Z,8.29
2018-12-31T11:47:54.927Z,8.27
2018-12-31T11:48:54.904Z,8.18
2018-12-31T11:49:54.893Z,8.21
2018-12-31T11:50:54.878Z,8.18
2018-12-31T11:51:54.912Z,8.00
2018-12-31T11:52:54.855Z,8.09
2018-12-31T11:53:54.841Z,8.00
2018-12-31T11:54:54.832Z,8.04
2018-12-31T11:55:54.823Z,8.02
2018-12-31T11:56:54.816Z,8.02
2018-12-31T11:57:54.811Z,8.00
2018-12-31T11:58:54.795Z,8.00
2018-12-31T11:59:54.777Z,8.10
2018-12-31T12:00:54.773Z,8.17
2018-12-31T12:01:55.729Z,8.22
2018-12-31T12:02:54.746Z,8.25
2018-12-31T12:03:54.748Z,8.21
2018-12-31T12:04:54.726Z,8.32
2018-12-31T12:05:54.708Z,8.34
2018-12-31T12:06:54.697Z,8.22
2018-12-31T12:07:54.694Z,8.25
2018-12-31T12:08:54.684Z,8.32
2018-12-31T12:09:54.670Z,8.43
2018-12-31T12:10:54.658Z,8.42
2018-12-31T12:11:54.649Z,8.45
2018-12-31T12:12:54.631Z,8.47
2018-12-31T12:13:54.651Z,8.46
2018-12-31T12:14:54.612Z,8.43
2018-12-31T12:15:54.600Z,8.47
2018-12-31T12:16:54.589Z,8.47
2018-12-31T12:17:54.586Z,8.43
2018-12-31T12:18:54.580Z,8.46
2018-12-31T12:19:54.571Z,8.42
2018-12-31T12:20:54.544Z,8.45
2018-12-31T12:21:54.536Z,8.46
2018-12-31T12:22:54.527Z,8.39
2018-12-31T12:23:54.516Z,8.34
2018-12-31T12:24:54.510Z,8.28
2018-12-31T12:25:54.497Z,8.27
2018-12-31T12:26:54.484Z,8.21
2018-12-31T12:27:54.474Z,8.27
2018-12-31T12:28:54.470Z,8.29
2018-12-31T12:29:54.452Z,8.34
2018-12-31T12:30:54.452Z,8.47
2018-12-31T12:31:54.433Z,8.55
2018-12-31T12:32:54.413Z,8.55
2018-12-31T12:33:54.404Z,8.63
2018-12-31T12:34:54.398Z,8.60
2018-12-31T12:35:54.407Z,8.63
2018-12-31T12:36:54.369Z,8.64
2018-12-31T12:37:54.364Z,8.71
2018-12-31T12:38:56.041Z,8.67
2018-12-31T12:39:54.344Z,8.68
2018-12-31T12:40:54.327Z,8.70
2018-12-31T12:41:54.323Z,8.79
2018-12-31T12:42:54.314Z,8.68
2018-12-31T12:43:54.297Z,8.70
2018-12-31T12:44:54.292Z,8.71
2018-12-31T12:45:54.331Z,8.65
2018-12-31T12:46:54.268Z,8.67
2018-12-31T12:47:54.248Z,8.63
2018-12-31T12:48:54.242Z,8.55
2018-12-31T12:49:54.229Z,8.57
2018-12-31T12:50:54.220Z,8.45
2018-12-31T12:51:54.219Z,8.40
2018-12-31T12:52:54.235Z,8.49
2018-12-31T12:53:54.200Z,8.45
2018-12-31T12:54:54.176Z,8.45
2018-12-31T12:55:54.162Z,8.32
2018-12-31T12:56:54.187Z,8.42
2018-12-31T12:57:54.141Z,8.25
2018-12-31T12:58:54.135Z,8.28
2018-12-31T12:59:54.119Z,8.34
2018-12-31T13:00:54.112Z,8.31
2018-12-31T13:01:54.101Z,8.29
2018-12-31T13:02:54.105Z,8.37
2018-12-31T13:03:54.071Z,8.36
2018-12-31T13:04:54.073Z,8.31
2018-12-31T13:05:54.056Z,8.34
2018-12-31T13:06:54.046Z,8.37
2018-12-31T13:07:54.039Z,8.37
2018-12-31T13:08:54.026Z,8.36
2018-12-31T13:09:54.011Z,8.31
2018-12-31T13:10:53.995Z,8.24
2018-12-31T13:11:53.984Z,8.27
2018-12-31T13:12:53.988Z,8.28
2018-12-31T13:13:53.963Z,8.25
2018-12-31T13:14:53.958Z,8.29
2018-12-31T13:15:53.950Z,8.27
2018-12-31T13:16:53.969Z,8.27
2018-12-31T13:17:53.926Z,8.27